الصفحة الرئيسية
METAR-TAF:

METAR-TAF

مطار :

ميناء القاهرة الجوي

القاهرة, مصر

دائرة عرض: 30-08N, خط طول: 031-24E, ارتفاع: 64 متر

مراقبة الطقس الحالي

تاريخ ووقت الإصدار 21 دقيقة قبل الساعة 11:30UTC
ريح 7 عقدة من الشمال/الشمال الغربي
درجة الحرارة 32°درجة مئوية
الرطوبة 36%
ضغط 1009 hPa
الرؤية 10 كم أو أكثر
غيوم قليلة على ارتفاع 2500 قدم

METAR: HECA 271130Z 33007KT 9999 FEW025 32/15 Q1009 NOSIG

زمن: 13:51 (11:51 UTC)

توقعات

تاريخ ووقت الإصدار 51 دقيقة قبل الساعة 11:00UTC
التوقعات صالحة من27 الساعة 12 UTC إلى 28 الساعة 18 UTC
ريح 10 عقدة من الشمال/الشمال الشرقي
الرؤية 10 كم أو أكثر
غيوم متفرقة على ارتفاع 2500 قدم

TAF: HECA 271100Z 2712/2818 02010KT 9999 SCT025

أرصاد الطقس والتوقعات من أكثر من 4000 مطار (تقارير الطقس للمطار METAR والتنبؤ بالطقس بالمطارTAF).

المحطات المتاحة هي النقط الصفراء والحمراء على الخريطة.

حرك المؤشر فوق النقطة لمعرفة اسم المحطة.

ثم انقر لمعرفة أرصاد وتوقعات الطقس.

لتغيير الخارطة: اضغط على الأزرار الخضراء مع رمز الصليب الأسود للتكبير. على الزر الأخضر مع شرطة للتصغير، أو على الأسهم الخضراء للخرائط المجاورة.


METAR-TAF: